createdAt,value
2017-04-14T00:00:36.081Z,0
2017-04-14T00:01:36.011Z,0
2017-04-14T00:02:35.982Z,0
2017-04-14T00:03:35.962Z,0
2017-04-14T00:04:35.332Z,0
2017-04-14T00:05:35.909Z,0
2017-04-14T00:06:35.884Z,0
2017-04-14T00:07:35.919Z,0
2017-04-14T00:08:35.533Z,0
2017-04-14T00:09:35.821Z,0
2017-04-14T00:10:35.786Z,0
2017-04-14T00:11:35.817Z,0
2017-04-14T00:12:35.750Z,0
2017-04-14T00:13:35.717Z,0
2017-04-14T00:14:35.732Z,0
2017-04-14T00:15:35.961Z,0
2017-04-14T00:16:35.630Z,0
2017-04-14T00:17:35.625Z,0
2017-04-14T00:18:35.594Z,0
2017-04-14T00:19:35.627Z,0
2017-04-14T00:20:35.246Z,0
2017-04-14T00:21:35.516Z,0
2017-04-14T00:22:35.489Z,0
2017-04-14T00:23:35.481Z,0
2017-04-14T00:24:35.483Z,0
2017-04-14T00:25:35.472Z,0
2017-04-14T00:26:35.396Z,0
2017-04-14T00:27:35.461Z,0
2017-04-14T00:28:35.347Z,0
2017-04-14T00:29:35.029Z,0
2017-04-14T00:30:35.295Z,0
2017-04-14T00:31:35.263Z,0
2017-04-14T00:32:35.252Z,0
2017-04-14T00:33:35.223Z,0
2017-04-14T00:34:35.198Z,0
2017-04-14T00:35:35.421Z,0
2017-04-14T00:36:34.545Z,0
2017-04-14T00:37:35.138Z,0
2017-04-14T00:38:34.503Z,0
2017-04-14T00:39:34.473Z,0
2017-04-14T00:40:34.503Z,0
2017-04-14T00:41:34.428Z,0
2017-04-14T00:42:35.000Z,0
2017-04-14T00:43:35.074Z,0
2017-04-14T00:44:34.364Z,0
2017-04-14T00:45:34.624Z,0
2017-04-14T00:46:34.963Z,0
2017-04-14T00:47:34.582Z,0
2017-04-14T00:48:34.567Z,0
2017-04-14T00:49:34.821Z,0
2017-04-14T00:50:34.502Z,0
2017-04-14T00:51:35.494Z,0
2017-04-14T00:52:34.449Z,0
2017-04-14T00:53:34.450Z,0
2017-04-14T00:54:34.759Z,0
2017-04-14T00:55:34.688Z,0
2017-04-14T00:56:34.710Z,0
2017-04-14T00:57:34.677Z,0
2017-04-14T00:58:34.616Z,0
2017-04-14T00:59:36.332Z,0
2017-04-14T01:00:33.970Z,0
2017-04-14T01:01:34.231Z,0
2017-04-14T01:02:34.561Z,0
2017-04-14T01:03:34.538Z,0
2017-04-14T01:04:34.472Z,0
2017-04-14T01:05:34.435Z,0
2017-04-14T01:06:34.121Z,0
2017-04-14T01:07:35.385Z,0
2017-04-14T01:08:34.604Z,0
2017-04-14T01:09:34.322Z,0
2017-04-14T01:10:34.305Z,0
2017-04-14T01:11:34.280Z,0
2017-04-14T01:12:33.660Z,0
2017-04-14T01:13:33.934Z,0
2017-04-14T01:14:34.222Z,0
2017-04-14T01:15:34.183Z,0
2017-04-14T01:16:33.564Z,0
2017-04-14T01:17:34.144Z,0
2017-04-14T01:18:34.108Z,0
2017-04-14T01:19:34.087Z,0
2017-04-14T01:20:34.071Z,0
2017-04-14T01:21:33.732Z,0
2017-04-14T01:22:34.031Z,0
2017-04-14T01:23:33.981Z,0
2017-04-14T01:24:33.953Z,0
2017-04-14T01:25:33.935Z,0
2017-04-14T01:26:33.602Z,0
2017-04-14T01:27:33.888Z,0
2017-04-14T01:28:33.851Z,0
2017-04-14T01:29:33.828Z,0
2017-04-14T01:30:33.859Z,0
2017-04-14T01:31:33.786Z,0
2017-04-14T01:32:33.761Z,0
2017-04-14T01:33:34.233Z,0
2017-04-14T01:34:33.706Z,0
2017-04-14T01:35:33.679Z,0
2017-04-14T01:36:33.660Z,0
2017-04-14T01:37:33.324Z,0
2017-04-14T01:38:33.612Z,0
2017-04-14T01:39:33.584Z,0
2017-04-14T01:40:33.556Z,0
2017-04-14T01:41:33.527Z,0
2017-04-14T01:42:33.504Z,0
2017-04-14T01:43:33.488Z,0
2017-04-14T01:44:33.548Z,0
2017-04-14T01:45:33.425Z,0
2017-04-14T01:46:33.706Z,0
2017-04-14T01:47:33.076Z,0
2017-04-14T01:48:33.416Z,0
2017-04-14T01:49:33.026Z,0
2017-04-14T01:50:33.313Z,0
2017-04-14T01:51:33.277Z,0
2017-04-14T01:52:33.259Z,0
2017-04-14T01:53:34.080Z,0
2017-04-14T01:54:33.157Z,0
2017-04-14T01:55:33.177Z,0
2017-04-14T01:56:34.059Z,0
2017-04-14T01:57:33.187Z,0
2017-04-14T01:58:33.105Z,0
2017-04-14T01:59:33.094Z,0
2017-04-14T02:00:33.095Z,0
2017-04-14T02:01:33.041Z,0
2017-04-14T02:02:32.714Z,0
2017-04-14T02:03:32.982Z,0
2017-04-14T02:04:32.962Z,0
2017-04-14T02:05:32.931Z,0
2017-04-14T02:06:32.960Z,0
2017-04-14T02:07:32.888Z,0
2017-04-14T02:08:32.247Z,0
2017-04-14T02:09:32.828Z,0
2017-04-14T02:10:32.800Z,0
2017-04-14T02:11:32.791Z,0
2017-04-14T02:12:32.754Z,0
2017-04-14T02:13:32.773Z,0
2017-04-14T02:14:32.710Z,0
2017-04-14T02:15:32.678Z,0
2017-04-14T02:16:32.652Z,0
2017-04-14T02:17:32.624Z,0
2017-04-14T02:18:32.602Z,0
2017-04-14T02:19:32.583Z,0
2017-04-14T02:20:32.600Z,0
2017-04-14T02:21:32.585Z,0
2017-04-14T02:22:32.515Z,0
2017-04-14T02:23:32.182Z,0
2017-04-14T02:24:32.512Z,0
2017-04-14T02:25:32.432Z,0
2017-04-14T02:26:32.404Z,0
2017-04-14T02:27:32.380Z,0
2017-04-14T02:28:32.351Z,0
2017-04-14T02:29:32.323Z,0
2017-04-14T02:30:32.292Z,0
2017-04-14T02:31:32.278Z,0
2017-04-14T02:32:32.256Z,0
2017-04-14T02:33:32.223Z,0
2017-04-14T02:34:32.196Z,0
2017-04-14T02:35:31.883Z,0
2017-04-14T02:36:32.158Z,0
2017-04-14T02:37:32.123Z,0
2017-04-14T02:38:31.810Z,0
2017-04-14T02:39:31.769Z,0
2017-04-14T02:40:32.092Z,0
2017-04-14T02:41:33.168Z,0
2017-04-14T02:42:31.997Z,0
2017-04-14T02:43:32.030Z,0
2017-04-14T02:44:31.960Z,0
2017-04-14T02:45:31.923Z,0
2017-04-14T02:46:31.596Z,0
2017-04-14T02:47:31.888Z,0
2017-04-14T02:48:31.878Z,0
2017-04-14T02:49:31.823Z,0
2017-04-14T02:50:31.796Z,0
2017-04-14T02:51:31.771Z,0
2017-04-14T02:52:31.747Z,0
2017-04-14T02:53:31.724Z,0
2017-04-14T02:54:31.702Z,0
2017-04-14T02:55:31.673Z,0
2017-04-14T02:56:31.953Z,0
2017-04-14T02:57:31.621Z,0
2017-04-14T02:58:31.657Z,0
2017-04-14T02:59:31.570Z,0
2017-04-14T03:00:31.855Z,0
2017-04-14T03:01:31.530Z,0
2017-04-14T03:02:31.505Z,0
2017-04-14T03:03:31.478Z,0
2017-04-14T03:04:31.451Z,0
2017-04-14T03:05:31.437Z,0
2017-04-14T03:06:31.442Z,0
2017-04-14T03:07:31.374Z,0
2017-04-14T03:08:31.345Z,0
2017-04-14T03:09:31.018Z,0
2017-04-14T03:10:31.301Z,0
2017-04-14T03:11:32.080Z,0
2017-04-14T03:12:31.249Z,0
2017-04-14T03:13:31.271Z,0
2017-04-14T03:14:31.194Z,0
2017-04-14T03:15:31.610Z,0
2017-04-14T03:16:31.144Z,0
2017-04-14T03:17:31.123Z,0
2017-04-14T03:18:31.143Z,0
2017-04-14T03:19:31.060Z,0
2017-04-14T03:20:31.039Z,0
2017-04-14T03:21:31.008Z,0
2017-04-14T03:22:30.989Z,0
2017-04-14T03:23:30.969Z,0
2017-04-14T03:24:30.957Z,0
2017-04-14T03:25:30.969Z,0
2017-04-14T03:26:30.648Z,0
2017-04-14T03:27:30.916Z,0
2017-04-14T03:28:30.844Z,0
2017-04-14T03:29:30.810Z,0
2017-04-14T03:30:30.785Z,0
2017-04-14T03:31:30.757Z,0
2017-04-14T03:32:30.734Z,0
2017-04-14T03:33:30.700Z,0
2017-04-14T03:34:30.686Z,0
2017-04-14T03:35:30.907Z,0
2017-04-14T03:36:30.626Z,0
2017-04-14T03:37:30.613Z,0
2017-04-14T03:38:30.583Z,0
2017-04-14T03:39:30.559Z,0
2017-04-14T03:40:30.588Z,0
2017-04-14T03:41:30.505Z,0
2017-04-14T03:42:30.483Z,0
2017-04-14T03:43:30.461Z,0
2017-04-14T03:44:30.168Z,0
2017-04-14T03:45:30.403Z,0
2017-04-14T03:46:30.370Z,0
2017-04-14T03:47:30.350Z,0
2017-04-14T03:48:30.037Z,0
2017-04-14T03:49:30.298Z,0
2017-04-14T03:50:30.322Z,0
2017-04-14T03:51:30.258Z,0
2017-04-14T03:52:30.237Z,0
2017-04-14T03:53:30.211Z,0
2017-04-14T03:54:30.392Z,0
2017-04-14T03:55:30.141Z,0
2017-04-14T03:56:31.424Z,0
2017-04-14T03:57:29.794Z,0
2017-04-14T03:58:30.081Z,0
2017-04-14T03:59:30.045Z,0
2017-04-14T04:00:29.420Z,0
2017-04-14T04:01:30.054Z,0
2017-04-14T04:02:29.682Z,0
2017-04-14T04:03:30.165Z,0
2017-04-14T04:04:29.926Z,0
2017-04-14T04:05:29.895Z,0
2017-04-14T04:06:29.867Z,0
2017-04-14T04:07:29.838Z,0
2017-04-14T04:08:29.827Z,0
2017-04-14T04:09:30.597Z,0
2017-04-14T04:10:29.764Z,0
2017-04-14T04:11:31.641Z,0
2017-04-14T04:12:29.708Z,0
2017-04-14T04:13:29.689Z,0
2017-04-14T04:14:29.373Z,0
2017-04-14T04:15:29.333Z,0
2017-04-14T04:16:29.633Z,0
2017-04-14T04:17:29.582Z,0
2017-04-14T04:18:29.554Z,0
2017-04-14T04:19:29.531Z,0
2017-04-14T04:20:29.509Z,0
2017-04-14T04:21:29.477Z,0
2017-04-14T04:22:29.458Z,0
2017-04-14T04:23:29.196Z,0
2017-04-14T04:24:29.103Z,0
2017-04-14T04:25:29.381Z,0
2017-04-14T04:26:30.107Z,0
2017-04-14T04:27:29.334Z,5
2017-04-14T04:28:29.315Z,5
2017-04-14T04:29:28.973Z,5
2017-04-14T04:30:29.252Z,5
2017-04-14T04:31:29.233Z,5
2017-04-14T04:32:29.194Z,5
2017-04-14T04:33:29.179Z,5
2017-04-14T04:34:29.149Z,10
2017-04-14T04:35:29.124Z,10
2017-04-14T04:36:28.795Z,10
2017-04-14T04:37:29.064Z,10
2017-04-14T04:38:29.249Z,10
2017-04-14T04:39:29.571Z,15
2017-04-14T04:40:29.049Z,15
2017-04-14T04:41:28.965Z,15
2017-04-14T04:42:28.998Z,15
2017-04-14T04:43:28.927Z,20
2017-04-14T04:44:28.899Z,20
2017-04-14T04:45:28.867Z,20
2017-04-14T04:46:28.837Z,25
2017-04-14T04:47:28.822Z,25
2017-04-14T04:48:28.856Z,25
2017-04-14T04:49:28.773Z,30
2017-04-14T04:50:28.438Z,30
2017-04-14T04:51:28.769Z,30
2017-04-14T04:52:28.690Z,35
2017-04-14T04:53:28.725Z,40
2017-04-14T04:54:28.646Z,40
2017-04-14T04:55:28.623Z,40
2017-04-14T04:56:28.592Z,40
2017-04-14T04:57:28.259Z,45
2017-04-14T04:58:28.606Z,50
2017-04-14T04:59:28.525Z,50
2017-04-14T05:00:28.471Z,55
2017-04-14T05:01:29.215Z,60
2017-04-14T05:02:28.438Z,60
2017-04-14T05:03:28.105Z,65
2017-04-14T05:04:28.378Z,65
2017-04-14T05:05:28.408Z,70
2017-04-14T05:06:29.277Z,70
2017-04-14T05:07:28.309Z,75
2017-04-14T05:08:27.983Z,80
2017-04-14T05:09:28.262Z,80
2017-04-14T05:10:28.256Z,85
2017-04-14T05:11:28.195Z,85
2017-04-14T05:12:28.180Z,85
2017-04-14T05:13:28.155Z,80
2017-04-14T05:14:28.155Z,105
2017-04-14T05:15:28.103Z,110
2017-04-14T05:16:28.145Z,100
2017-04-14T05:17:28.110Z,125
2017-04-14T05:18:28.077Z,135
2017-04-14T05:19:28.055Z,140
2017-04-14T05:20:27.980Z,150
2017-04-14T05:21:27.957Z,155
2017-04-14T05:22:27.933Z,165
2017-04-14T05:23:27.907Z,165
2017-04-14T05:24:27.637Z,160
2017-04-14T05:25:27.922Z,145
2017-04-14T05:26:27.839Z,175
2017-04-14T05:27:27.809Z,185
2017-04-14T05:28:27.787Z,195
2017-04-14T05:29:27.455Z,200
2017-04-14T05:30:27.750Z,205
2017-04-14T05:31:27.707Z,205
2017-04-14T05:32:27.683Z,190
2017-04-14T05:33:27.364Z,210
2017-04-14T05:34:27.652Z,215
2017-04-14T05:35:27.624Z,220
2017-04-14T05:36:27.649Z,215
2017-04-14T05:37:27.576Z,215
2017-04-14T05:38:27.550Z,210
2017-04-14T05:39:27.535Z,205
2017-04-14T05:40:29.057Z,205
2017-04-14T05:41:27.483Z,205
2017-04-14T05:42:27.453Z,210
2017-04-14T05:43:27.434Z,220
2017-04-14T05:44:27.459Z,230
2017-04-14T05:45:27.384Z,240
2017-04-14T05:46:27.358Z,250
2017-04-14T05:47:28.397Z,270
2017-04-14T05:48:27.326Z,285
2017-04-14T05:49:27.287Z,295
2017-04-14T05:50:27.270Z,295
2017-04-14T05:51:27.650Z,305
2017-04-14T05:52:27.221Z,320
2017-04-14T05:53:27.208Z,335
2017-04-14T05:54:27.181Z,335
2017-04-14T05:55:27.159Z,345
2017-04-14T05:56:28.240Z,350
2017-04-14T05:57:27.117Z,355
2017-04-14T05:58:28.064Z,360
2017-04-14T05:59:27.070Z,370
2017-04-14T06:00:27.040Z,385
2017-04-14T06:01:27.022Z,390
2017-04-14T06:02:27.010Z,395
2017-04-14T06:03:26.994Z,395
2017-04-14T06:04:26.971Z,395
2017-04-14T06:05:26.960Z,410
2017-04-14T06:06:26.912Z,415
2017-04-14T06:07:26.943Z,420
2017-04-14T06:08:26.880Z,430
2017-04-14T06:09:26.857Z,440
2017-04-14T06:10:27.838Z,440
2017-04-14T06:11:26.818Z,455
2017-04-14T06:12:26.844Z,455
2017-04-14T06:13:26.171Z,455
2017-04-14T06:14:26.752Z,460
2017-04-14T06:15:26.725Z,470
2017-04-14T06:16:26.716Z,475
2017-04-14T06:17:26.688Z,485
2017-04-14T06:18:26.664Z,495
2017-04-14T06:19:26.650Z,500
2017-04-14T06:20:26.623Z,500
2017-04-14T06:21:26.605Z,500
2017-04-14T06:22:26.578Z,510
2017-04-14T06:23:26.769Z,515
2017-04-14T06:24:26.556Z,530
2017-04-14T06:25:26.523Z,540
2017-04-14T06:26:26.506Z,550
2017-04-14T06:27:26.537Z,555
2017-04-14T06:28:26.466Z,565
2017-04-14T06:29:26.454Z,575
2017-04-14T06:30:26.429Z,585
2017-04-14T06:31:26.418Z,595
2017-04-14T06:32:26.387Z,595
2017-04-14T06:33:26.374Z,615
2017-04-14T06:34:26.354Z,615
2017-04-14T06:35:26.781Z,620
2017-04-14T06:36:26.335Z,630
2017-04-14T06:37:26.301Z,635
2017-04-14T06:38:26.331Z,590
2017-04-14T06:39:26.282Z,375
2017-04-14T06:40:26.255Z,495
2017-04-14T06:41:26.236Z,630
2017-04-14T06:42:26.206Z,670
2017-04-14T06:43:26.196Z,675
2017-04-14T06:44:26.166Z,675
2017-04-14T06:45:26.160Z,690
2017-04-14T06:46:26.141Z,720
2017-04-14T06:47:27.169Z,750
2017-04-14T06:48:25.809Z,765
2017-04-14T06:49:26.129Z,770
2017-04-14T06:50:26.073Z,720
2017-04-14T06:51:26.047Z,595
2017-04-14T06:52:26.030Z,430
2017-04-14T06:53:26.072Z,410
2017-04-14T06:54:26.010Z,420
2017-04-14T06:55:25.990Z,455
2017-04-14T06:56:25.665Z,810
2017-04-14T06:57:25.943Z,820
2017-04-14T06:58:25.631Z,845
2017-04-14T06:59:25.909Z,810
2017-04-14T07:00:25.896Z,885
2017-04-14T07:01:25.935Z,935
2017-04-14T07:02:25.952Z,1020
2017-04-14T07:03:25.895Z,1050
2017-04-14T07:04:25.825Z,1040
2017-04-14T07:05:25.818Z,1020
2017-04-14T07:06:26.082Z,975
2017-04-14T07:07:25.190Z,890
2017-04-14T07:08:25.452Z,380
2017-04-14T07:09:25.752Z,270
2017-04-14T07:10:25.723Z,240
2017-04-14T07:11:25.709Z,240
2017-04-14T07:12:25.688Z,230
2017-04-14T07:13:25.685Z,230
2017-04-14T07:14:25.359Z,225
2017-04-14T07:15:25.634Z,225
2017-04-14T07:16:25.074Z,225
2017-04-14T07:17:25.551Z,220
2017-04-14T07:18:25.587Z,220
2017-04-14T07:19:25.562Z,215
2017-04-14T07:20:25.603Z,210
2017-04-14T07:21:25.527Z,210
2017-04-14T07:22:25.507Z,215
2017-04-14T07:23:25.502Z,225
2017-04-14T07:24:25.473Z,230
2017-04-14T07:25:25.468Z,240
2017-04-14T07:26:25.450Z,255
2017-04-14T07:27:27.227Z,255
2017-04-14T07:28:25.108Z,260
2017-04-14T07:29:25.383Z,265
2017-04-14T07:30:25.063Z,275
2017-04-14T07:31:25.029Z,285
2017-04-14T07:32:25.313Z,300
2017-04-14T07:33:25.293Z,310
2017-04-14T07:34:25.272Z,320
2017-04-14T07:35:25.250Z,330
2017-04-14T07:36:24.942Z,340
2017-04-14T07:37:26.820Z,340
2017-04-14T07:38:25.193Z,335
2017-04-14T07:39:25.223Z,325
2017-04-14T07:40:25.151Z,320
2017-04-14T07:41:25.140Z,325
2017-04-14T07:42:24.847Z,325
2017-04-14T07:43:26.011Z,325
2017-04-14T07:44:25.075Z,335
2017-04-14T07:45:24.760Z,340
2017-04-14T07:46:25.024Z,345
2017-04-14T07:47:25.005Z,320
2017-04-14T07:48:25.005Z,300
2017-04-14T07:49:25.260Z,275
2017-04-14T07:50:24.937Z,265
2017-04-14T07:51:24.968Z,250
2017-04-14T07:52:24.900Z,240
2017-04-14T07:53:24.877Z,235
2017-04-14T07:54:24.854Z,235
2017-04-14T07:55:24.833Z,240
2017-04-14T07:56:25.914Z,250
2017-04-14T07:57:24.793Z,245
2017-04-14T07:58:24.487Z,245
2017-04-14T07:59:26.945Z,245
2017-04-14T08:00:24.731Z,250
2017-04-14T08:01:24.748Z,245
2017-04-14T08:02:24.689Z,245
2017-04-14T08:03:24.665Z,245
2017-04-14T08:04:24.638Z,245
2017-04-14T08:05:24.624Z,250
2017-04-14T08:06:24.599Z,255
2017-04-14T08:07:24.923Z,255
2017-04-14T08:08:24.607Z,260
2017-04-14T08:09:24.536Z,260
2017-04-14T08:10:24.506Z,255
2017-04-14T08:11:24.490Z,255
2017-04-14T08:12:24.469Z,260
2017-04-14T08:13:24.404Z,265
2017-04-14T08:14:24.434Z,270
2017-04-14T08:15:24.401Z,265
2017-04-14T08:16:24.380Z,265
2017-04-14T08:17:24.367Z,260
2017-04-14T08:18:24.841Z,260
2017-04-14T08:19:24.322Z,260
2017-04-14T08:20:24.342Z,260
2017-04-14T08:21:24.282Z,255
2017-04-14T08:22:24.303Z,255
2017-04-14T08:23:24.284Z,260
2017-04-14T08:24:24.209Z,265
2017-04-14T08:25:24.187Z,270
2017-04-14T08:26:24.153Z,265
2017-04-14T08:27:24.688Z,270
2017-04-14T08:28:24.120Z,275
2017-04-14T08:29:24.352Z,275
2017-04-14T08:30:24.091Z,280
2017-04-14T08:31:24.050Z,280
2017-04-14T08:32:23.436Z,285
2017-04-14T08:33:24.045Z,285
2017-04-14T08:34:23.392Z,285
2017-04-14T08:35:23.668Z,285
2017-04-14T08:36:23.949Z,285
2017-04-14T08:37:24.927Z,280
2017-04-14T08:38:23.913Z,280
2017-04-14T08:39:23.878Z,280
2017-04-14T08:40:23.859Z,280
2017-04-14T08:41:23.831Z,275
2017-04-14T08:42:23.822Z,270
2017-04-14T08:43:23.799Z,270
2017-04-14T08:44:23.496Z,270
2017-04-14T08:45:23.795Z,270
2017-04-14T08:46:23.726Z,270
2017-04-14T08:47:23.698Z,280
2017-04-14T08:48:23.699Z,285
2017-04-14T08:49:23.723Z,290
2017-04-14T08:50:23.643Z,290
2017-04-14T08:51:23.669Z,290
2017-04-14T08:52:23.601Z,290
2017-04-14T08:53:23.581Z,290
2017-04-14T08:54:23.563Z,290
2017-04-14T08:55:23.278Z,295
2017-04-14T08:56:23.504Z,295
2017-04-14T08:57:23.490Z,290
2017-04-14T08:58:23.513Z,285
2017-04-14T08:59:23.449Z,290
2017-04-14T09:00:23.115Z,285
2017-04-14T09:01:38.005Z,285
2017-04-14T09:02:23.093Z,280
2017-04-14T09:03:23.355Z,270
2017-04-14T09:04:23.332Z,265
2017-04-14T09:05:23.318Z,265
2017-04-14T09:06:23.335Z,265
2017-04-14T09:07:22.974Z,260
2017-04-14T09:08:23.258Z,255
2017-04-14T09:09:23.286Z,250
2017-04-14T09:10:23.218Z,245
2017-04-14T09:11:23.175Z,245
2017-04-14T09:12:22.856Z,240
2017-04-14T09:13:23.135Z,235
2017-04-14T09:14:23.113Z,230
2017-04-14T09:15:22.795Z,225
2017-04-14T09:16:23.071Z,225
2017-04-14T09:17:23.043Z,225
2017-04-14T09:18:23.022Z,230
2017-04-14T09:19:22.955Z,230
2017-04-14T09:20:22.980Z,225
2017-04-14T09:21:22.675Z,225
2017-04-14T09:22:22.642Z,225
2017-04-14T09:23:22.977Z,230
2017-04-14T09:24:23.146Z,230
2017-04-14T09:25:22.880Z,230
2017-04-14T09:26:22.305Z,230
2017-04-14T09:27:22.844Z,225
2017-04-14T09:28:22.858Z,230
2017-04-14T09:29:22.491Z,225
2017-04-14T09:30:22.826Z,225
2017-04-14T09:31:22.435Z,225
2017-04-14T09:32:22.417Z,220
2017-04-14T09:33:22.946Z,215
2017-04-14T09:34:22.681Z,215
2017-04-14T09:35:22.356Z,215
2017-04-14T09:36:22.381Z,215
2017-04-14T09:37:22.612Z,215
2017-04-14T09:38:22.792Z,215
2017-04-14T09:39:22.577Z,215
2017-04-14T09:40:22.530Z,220
2017-04-14T09:41:21.969Z,220
2017-04-14T09:42:22.515Z,220
2017-04-14T09:43:22.530Z,225
2017-04-14T09:44:22.452Z,225
2017-04-14T09:45:22.140Z,230
2017-04-14T09:46:22.464Z,230
2017-04-14T09:47:22.385Z,225
2017-04-14T09:48:22.124Z,225
2017-04-14T09:49:22.344Z,220
2017-04-14T09:50:22.369Z,220
2017-04-14T09:51:22.300Z,215
2017-04-14T09:52:22.275Z,210
2017-04-14T09:53:21.971Z,215
2017-04-14T09:54:22.239Z,220
2017-04-14T09:55:22.262Z,225
2017-04-14T09:56:22.198Z,240
2017-04-14T09:57:23.171Z,255
2017-04-14T09:58:22.214Z,260
2017-04-14T09:59:22.125Z,260
2017-04-14T10:00:21.826Z,255
2017-04-14T10:01:22.093Z,245
2017-04-14T10:02:21.763Z,240
2017-04-14T10:03:22.038Z,235
2017-04-14T10:04:21.470Z,230
2017-04-14T10:05:21.993Z,220
2017-04-14T10:06:21.997Z,205
2017-04-14T10:07:21.959Z,200
2017-04-14T10:08:21.957Z,195
2017-04-14T10:09:21.910Z,195
2017-04-14T10:10:21.885Z,195
2017-04-14T10:11:21.864Z,190
2017-04-14T10:12:22.703Z,190
2017-04-14T10:13:21.819Z,195
2017-04-14T10:14:21.750Z,195
2017-04-14T10:15:21.771Z,200
2017-04-14T10:16:21.750Z,200
2017-04-14T10:17:21.438Z,200
2017-04-14T10:18:21.728Z,205
2017-04-14T10:19:21.092Z,210
2017-04-14T10:20:21.671Z,215
2017-04-14T10:21:21.636Z,215
2017-04-14T10:22:21.618Z,215
2017-04-14T10:23:21.312Z,220
2017-04-14T10:24:22.081Z,225
2017-04-14T10:25:21.247Z,230
2017-04-14T10:26:21.236Z,230
2017-04-14T10:27:22.113Z,235
2017-04-14T10:28:21.196Z,245
2017-04-14T10:29:21.483Z,245
2017-04-14T10:30:21.449Z,245
2017-04-14T10:31:21.474Z,245
2017-04-14T10:32:21.414Z,245
2017-04-14T10:33:22.250Z,250
2017-04-14T10:34:21.068Z,255
2017-04-14T10:35:21.339Z,260
2017-04-14T10:36:21.084Z,255
2017-04-14T10:37:21.292Z,250
2017-04-14T10:38:21.287Z,250
2017-04-14T10:39:21.256Z,245
2017-04-14T10:40:20.925Z,245
2017-04-14T10:41:21.464Z,240
2017-04-14T10:42:21.182Z,240
2017-04-14T10:43:21.159Z,250
2017-04-14T10:44:21.147Z,260
2017-04-14T10:45:20.878Z,270
2017-04-14T10:46:21.094Z,275
2017-04-14T10:47:22.274Z,285
2017-04-14T10:48:20.757Z,295
2017-04-14T10:49:21.026Z,305
2017-04-14T10:50:20.711Z,315
2017-04-14T10:51:20.692Z,325
2017-04-14T10:52:20.963Z,340
2017-04-14T10:53:20.992Z,345
2017-04-14T10:54:20.925Z,340
2017-04-14T10:55:20.902Z,330
2017-04-14T10:56:20.877Z,335
2017-04-14T10:57:20.863Z,335
2017-04-14T10:58:21.056Z,330
2017-04-14T10:59:20.862Z,320
2017-04-14T11:00:20.782Z,315
2017-04-14T11:01:20.795Z,310
2017-04-14T11:02:20.746Z,315
2017-04-14T11:03:20.435Z,325
2017-04-14T11:04:20.418Z,335
2017-04-14T11:05:20.725Z,335
2017-04-14T11:06:20.655Z,335
2017-04-14T11:07:20.390Z,330
2017-04-14T11:08:20.311Z,325
2017-04-14T11:09:20.990Z,310
2017-04-14T11:10:20.579Z,300
2017-04-14T11:11:20.607Z,290
2017-04-14T11:12:20.528Z,285
2017-04-14T11:13:19.913Z,275
2017-04-14T11:14:19.891Z,270
2017-04-14T11:15:20.482Z,260
2017-04-14T11:16:20.444Z,265
2017-04-14T11:17:20.438Z,270
2017-04-14T11:18:20.107Z,285
2017-04-14T11:19:20.392Z,310
2017-04-14T11:20:20.356Z,335
2017-04-14T11:21:20.387Z,365
2017-04-14T11:22:20.315Z,400
2017-04-14T11:23:20.294Z,405
2017-04-14T11:24:20.275Z,405
2017-04-14T11:25:20.013Z,405
2017-04-14T11:26:19.932Z,405
2017-04-14T11:27:20.225Z,400
2017-04-14T11:28:20.194Z,400
2017-04-14T11:29:19.868Z,400
2017-04-14T11:30:20.142Z,400
2017-04-14T11:31:21.428Z,400
2017-04-14T11:32:20.149Z,395
2017-04-14T11:33:19.776Z,390
2017-04-14T11:34:19.762Z,390
2017-04-14T11:35:20.032Z,390
2017-04-14T11:36:20.029Z,390
2017-04-14T11:37:20.342Z,400
2017-04-14T11:38:19.376Z,405
2017-04-14T11:39:19.365Z,405
2017-04-14T11:40:19.358Z,405
2017-04-14T11:41:19.911Z,395
2017-04-14T11:42:19.944Z,390
2017-04-14T11:43:19.873Z,390
2017-04-14T11:44:19.869Z,385
2017-04-14T11:45:19.240Z,380
2017-04-14T11:46:19.817Z,375
2017-04-14T11:47:19.388Z,370
2017-04-14T11:48:19.781Z,370
2017-04-14T11:49:19.452Z,365
2017-04-14T11:50:19.732Z,365
2017-04-14T11:51:19.697Z,370
2017-04-14T11:52:19.836Z,375
2017-04-14T11:53:19.363Z,395
2017-04-14T11:54:19.641Z,395
2017-04-14T11:55:20.172Z,400
2017-04-14T11:56:19.610Z,415
2017-04-14T11:57:19.585Z,425
2017-04-14T11:58:19.560Z,430
2017-04-14T11:59:19.588Z,435
2017-04-14T12:00:19.514Z,430
2017-04-14T12:01:19.488Z,400
2017-04-14T12:02:19.471Z,380
2017-04-14T12:03:19.458Z,385
2017-04-14T12:04:19.443Z,395
2017-04-14T12:05:20.846Z,435
2017-04-14T12:06:19.451Z,475
2017-04-14T12:07:19.439Z,500
2017-04-14T12:08:19.633Z,515
2017-04-14T12:09:19.021Z,520
2017-04-14T12:10:19.308Z,525
2017-04-14T12:11:19.032Z,540
2017-04-14T12:12:19.270Z,545
2017-04-14T12:13:19.253Z,565
2017-04-14T12:14:19.583Z,560
2017-04-14T12:15:19.549Z,550
2017-04-14T12:16:18.880Z,530
2017-04-14T12:17:19.116Z,515
2017-04-14T12:18:19.134Z,490
2017-04-14T12:19:19.128Z,475
2017-04-14T12:20:18.853Z,440
2017-04-14T12:21:19.135Z,445
2017-04-14T12:22:18.863Z,425
2017-04-14T12:23:18.734Z,450
2017-04-14T12:24:19.039Z,465
2017-04-14T12:25:19.006Z,450
2017-04-14T12:26:18.982Z,460
2017-04-14T12:27:18.957Z,495
2017-04-14T12:28:18.634Z,510
2017-04-14T12:29:18.923Z,510
2017-04-14T12:30:18.915Z,510
2017-04-14T12:31:18.876Z,495
2017-04-14T12:32:18.861Z,480
2017-04-14T12:33:18.837Z,475
2017-04-14T12:34:18.817Z,480
2017-04-14T12:35:18.796Z,470
2017-04-14T12:36:18.775Z,445
2017-04-14T12:37:18.799Z,430
2017-04-14T12:38:18.740Z,400
2017-04-14T12:39:18.718Z,385
2017-04-14T12:40:18.395Z,355
2017-04-14T12:41:18.474Z,345
2017-04-14T12:42:18.353Z,325
2017-04-14T12:43:18.628Z,300
2017-04-14T12:44:18.314Z,275
2017-04-14T12:45:18.590Z,265
2017-04-14T12:46:18.578Z,275
2017-04-14T12:47:18.604Z,265
2017-04-14T12:48:18.582Z,270
2017-04-14T12:49:18.362Z,265
2017-04-14T12:50:18.497Z,250
2017-04-14T12:51:18.467Z,255
2017-04-14T12:52:18.250Z,260
2017-04-14T12:53:18.433Z,230
2017-04-14T12:54:18.121Z,250
2017-04-14T12:55:18.372Z,260
2017-04-14T12:56:18.365Z,280
2017-04-14T12:57:18.342Z,300
2017-04-14T12:58:18.334Z,300
2017-04-14T12:59:18.310Z,300
2017-04-14T13:00:18.327Z,290
2017-04-14T13:01:18.312Z,290
2017-04-14T13:02:18.236Z,285
2017-04-14T13:03:18.215Z,275
2017-04-14T13:04:18.205Z,270
2017-04-14T13:05:18.169Z,255
2017-04-14T13:06:18.154Z,235
2017-04-14T13:07:17.854Z,220
2017-04-14T13:08:19.471Z,215
2017-04-14T13:09:18.087Z,210
2017-04-14T13:10:19.863Z,205
2017-04-14T13:11:17.852Z,215
2017-04-14T13:12:18.026Z,210
2017-04-14T13:13:17.709Z,200
2017-04-14T13:14:18.255Z,195
2017-04-14T13:15:17.952Z,190
2017-04-14T13:16:17.936Z,190
2017-04-14T13:17:18.618Z,195
2017-04-14T13:18:19.217Z,190
2017-04-14T13:19:17.896Z,180
2017-04-14T13:20:17.866Z,170
2017-04-14T13:21:17.837Z,180
2017-04-14T13:22:17.865Z,190
2017-04-14T13:23:17.794Z,200
2017-04-14T13:24:17.793Z,195
2017-04-14T13:25:17.757Z,170
2017-04-14T13:26:17.709Z,155
2017-04-14T13:27:17.707Z,155
2017-04-14T13:28:17.400Z,165
2017-04-14T13:29:17.372Z,180
2017-04-14T13:30:17.667Z,195
2017-04-14T13:31:17.322Z,210
2017-04-14T13:32:17.304Z,215
2017-04-14T13:33:17.295Z,215
2017-04-14T13:34:17.563Z,215
2017-04-14T13:35:17.542Z,215
2017-04-14T13:36:18.520Z,230
2017-04-14T13:37:17.556Z,230
2017-04-14T13:38:17.576Z,225
2017-04-14T13:39:17.461Z,220
2017-04-14T13:40:17.434Z,220
2017-04-14T13:41:17.427Z,220
2017-04-14T13:42:17.397Z,220
2017-04-14T13:43:17.377Z,220
2017-04-14T13:44:17.103Z,225
2017-04-14T13:45:17.326Z,220
2017-04-14T13:46:17.314Z,220
2017-04-14T13:47:16.978Z,220
2017-04-14T13:48:17.264Z,210
2017-04-14T13:49:17.244Z,200
2017-04-14T13:50:17.459Z,200
2017-04-14T13:51:17.202Z,200
2017-04-14T13:52:17.531Z,200
2017-04-14T13:53:17.157Z,205
2017-04-14T13:54:16.886Z,205
2017-04-14T13:55:17.106Z,210
2017-04-14T13:56:17.148Z,215
2017-04-14T13:57:16.820Z,220
2017-04-14T13:58:16.754Z,205
2017-04-14T13:59:16.734Z,200
2017-04-14T14:00:18.010Z,200
2017-04-14T14:01:16.983Z,200
2017-04-14T14:02:16.959Z,195
2017-04-14T14:03:16.941Z,175
2017-04-14T14:04:16.923Z,165
2017-04-14T14:05:16.948Z,165
2017-04-14T14:06:16.876Z,165